createdAt,value
2023-02-11T00:01:18.448Z,50.64
2023-02-11T00:03:45.152Z,50.53
2023-02-11T00:06:13.829Z,50.38
2023-02-11T00:08:47.777Z,50.01
2023-02-11T00:11:14.391Z,49.28
2023-02-11T00:13:49.130Z,48.98
2023-02-11T00:16:15.675Z,48.34
2023-02-11T00:18:42.183Z,48.23
2023-02-11T00:21:08.641Z,48.32
2023-02-11T00:23:35.153Z,48.67
2023-02-11T00:26:01.593Z,48.95
2023-02-11T00:28:28.291Z,48.82
2023-02-11T00:30:54.966Z,49.43
2023-02-11T00:33:21.503Z,49.57
2023-02-11T00:35:48.179Z,48.79
2023-02-11T00:38:14.840Z,47.98
2023-02-11T00:40:41.326Z,47.83
2023-02-11T00:43:07.843Z,48.28
2023-02-11T00:45:34.356Z,49.25
2023-02-11T00:48:00.783Z,50.04
2023-02-11T00:50:27.249Z,50.76
2023-02-11T00:52:53.706Z,51.42
2023-02-11T00:55:20.390Z,52.06
2023-02-11T00:57:46.917Z,53.03
2023-02-11T01:00:18.906Z,53.46
2023-02-11T01:02:45.453Z,53.66
2023-02-11T01:05:12.717Z,53.69
2023-02-11T01:07:39.270Z,52.88
2023-02-11T01:10:05.777Z,52.50
2023-02-11T01:12:34.537Z,51.15
2023-02-11T01:20:25.804Z,49.81
2023-02-11T01:25:32.505Z,50.80
2023-02-11T01:30:49.198Z,52.19
2023-02-11T01:33:17.093Z,52.49
2023-02-11T01:35:43.554Z,52.73
2023-02-11T01:38:09.932Z,53.05
2023-02-11T01:40:39.919Z,52.26
2023-02-11T01:43:06.501Z,52.11
2023-02-11T01:45:40.617Z,52.13
2023-02-11T01:48:13.437Z,52.61
2023-02-11T01:50:39.931Z,52.86
2023-02-11T01:53:06.417Z,52.31
2023-02-11T01:55:32.932Z,51.46
2023-02-11T01:57:59.489Z,51.31
2023-02-11T02:00:26.389Z,51.46
2023-02-11T02:02:52.930Z,51.77
2023-02-11T02:05:19.452Z,50.86
2023-02-11T02:07:45.905Z,50.16
2023-02-11T02:10:12.442Z,49.11
2023-02-11T02:12:38.962Z,49.20
2023-02-11T02:15:05.750Z,50.68
2023-02-11T02:17:36.403Z,50.98
2023-02-11T02:20:12.010Z,50.73
2023-02-11T02:22:38.537Z,51.23
2023-02-11T02:25:05.077Z,51.06
2023-02-11T02:27:31.636Z,50.45
2023-02-11T02:29:58.121Z,50.06
2023-02-11T02:32:24.579Z,50.48
2023-02-11T02:34:51.040Z,49.75
2023-02-11T02:37:17.572Z,49.79
2023-02-11T02:39:44.056Z,49.71
2023-02-11T02:42:10.493Z,49.45
2023-02-11T02:44:37.192Z,49.35
2023-02-11T02:47:23.627Z,49.42
2023-02-11T02:49:50.036Z,50.13
2023-02-11T02:52:16.404Z,51.00
2023-02-11T02:54:45.205Z,50.94
2023-02-11T02:57:14.824Z,51.70
2023-02-11T02:59:41.379Z,52.57
2023-02-11T03:02:07.884Z,52.79
2023-02-11T03:04:34.354Z,52.57
2023-02-11T03:07:00.741Z,53.03
2023-02-11T03:09:27.128Z,53.38
2023-02-11T03:12:05.178Z,53.17
2023-02-11T03:14:31.696Z,53.28
2023-02-11T03:17:00.656Z,52.12
2023-02-11T03:19:27.170Z,50.71
2023-02-11T03:21:53.598Z,49.94
2023-02-11T03:24:20.051Z,49.54
2023-02-11T03:26:46.394Z,49.28
2023-02-11T03:29:14.185Z,48.69
2023-02-11T03:31:40.772Z,48.36
2023-02-11T03:34:07.402Z,49.36
2023-02-11T03:36:33.819Z,48.85
2023-02-11T03:39:00.313Z,49.94
2023-02-11T03:41:26.713Z,49.81
2023-02-11T03:43:57.186Z,49.91
2023-02-11T03:46:23.806Z,50.07
2023-02-11T03:48:50.524Z,49.30
2023-02-11T03:51:16.979Z,49.22
2023-02-11T03:53:43.308Z,48.96
2023-02-11T03:56:09.666Z,47.93
2023-02-11T03:58:36.026Z,48.04
2023-02-11T04:01:02.384Z,47.76
2023-02-11T04:03:28.857Z,47.46
2023-02-11T04:05:55.251Z,48.11
2023-02-11T04:08:21.593Z,48.36
2023-02-11T04:10:47.913Z,48.95
2023-02-11T04:13:14.437Z,49.53
2023-02-11T04:15:40.841Z,49.73
2023-02-11T04:18:07.166Z,49.33
2023-02-11T04:20:33.615Z,49.55
2023-02-11T04:22:59.961Z,49.54
2023-02-11T04:25:26.350Z,49.85
2023-02-11T04:27:52.687Z,49.33
2023-02-11T04:30:19.089Z,50.66
2023-02-11T04:32:45.412Z,50.47
2023-02-11T04:35:11.739Z,50.53
2023-02-11T04:37:38.080Z,51.43
2023-02-11T04:40:04.586Z,50.53
2023-02-11T04:42:30.931Z,50.13
2023-02-11T04:44:57.256Z,49.96
2023-02-11T04:47:23.589Z,50.15
2023-02-11T04:49:49.960Z,50.32
2023-02-11T04:52:16.312Z,49.74
2023-02-11T04:54:42.725Z,49.55
2023-02-11T04:57:09.091Z,50.26
2023-02-11T04:59:35.443Z,49.66
2023-02-11T05:02:03.341Z,50.35
2023-02-11T05:04:32.300Z,50.46
2023-02-11T05:09:39.026Z,49.16
2023-02-11T05:12:05.343Z,48.82
2023-02-11T05:14:31.675Z,48.50
2023-02-11T05:16:58.147Z,49.35
2023-02-11T05:19:24.511Z,49.59
2023-02-11T05:22:02.229Z,49.94
2023-02-11T05:24:29.598Z,49.20
2023-02-11T05:26:55.922Z,49.14
2023-02-11T05:29:22.248Z,49.01
2023-02-11T05:31:48.762Z,49.78
2023-02-11T05:34:15.087Z,50.39
2023-02-11T05:36:41.392Z,49.78
2023-02-11T05:39:07.718Z,49.46
2023-02-11T05:41:46.201Z,48.85
2023-02-11T05:44:13.156Z,49.13
2023-02-11T05:46:39.668Z,49.55
2023-02-11T05:49:06.019Z,49.13
2023-02-11T05:51:32.496Z,48.96
2023-02-11T05:54:01.640Z,48.62
2023-02-11T05:56:28.095Z,48.17
2023-02-11T05:58:54.587Z,48.06
2023-02-11T06:01:21.062Z,47.70
2023-02-11T06:03:47.674Z,47.45
2023-02-11T06:06:14.212Z,47.72
2023-02-11T06:08:40.734Z,47.33
2023-02-11T06:11:07.260Z,47.13
2023-02-11T06:13:33.663Z,48.41
2023-02-11T06:16:00.210Z,47.82
2023-02-11T06:18:26.760Z,47.78
2023-02-11T06:20:53.114Z,47.98
2023-02-11T06:23:19.543Z,48.03
2023-02-11T06:26:03.091Z,47.62
2023-02-11T06:28:29.537Z,47.05
2023-02-11T06:30:55.998Z,46.91
2023-02-11T06:33:22.454Z,47.32
2023-02-11T06:35:50.081Z,47.35
2023-02-11T06:38:16.758Z,47.29
2023-02-11T06:40:43.271Z,47.51
2023-02-11T06:43:09.789Z,47.90
2023-02-11T06:45:36.436Z,48.38
2023-02-11T06:48:02.997Z,48.85
2023-02-11T06:50:29.483Z,48.31
2023-02-11T06:52:55.862Z,47.63
2023-02-11T06:55:22.236Z,47.76
2023-02-11T06:57:50.822Z,47.93
2023-02-11T07:00:17.315Z,47.45
2023-02-11T07:02:43.700Z,47.21
2023-02-11T07:05:10.099Z,46.60
2023-02-11T07:07:36.603Z,46.79
2023-02-11T07:10:03.444Z,46.88
2023-02-11T07:12:29.834Z,47.04
2023-02-11T07:14:56.361Z,47.13
2023-02-11T07:17:22.835Z,47.17
2023-02-11T07:19:49.292Z,46.21
2023-02-11T07:22:21.006Z,45.68
2023-02-11T07:24:49.762Z,46.08
2023-02-11T07:27:16.252Z,46.80
2023-02-11T07:29:45.147Z,47.07
2023-02-11T07:32:11.516Z,47.81
2023-02-11T07:34:38.995Z,47.16
2023-02-11T07:37:05.583Z,48.14
2023-02-11T07:39:32.102Z,49.22
2023-02-11T07:41:58.598Z,50.17
2023-02-11T07:44:25.107Z,49.72
2023-02-11T07:46:51.654Z,48.95
2023-02-11T07:49:18.094Z,48.56
2023-02-11T07:51:44.616Z,48.52
2023-02-11T07:54:11.100Z,49.50
2023-02-11T07:56:37.610Z,49.26
2023-02-11T07:59:04.085Z,49.40
2023-02-11T08:01:30.589Z,49.53
2023-02-11T08:04:01.576Z,49.23
2023-02-11T08:06:28.389Z,49.03
2023-02-11T08:08:54.998Z,48.87
2023-02-11T08:11:21.534Z,48.72
2023-02-11T08:13:48.148Z,49.56
2023-02-11T08:16:14.743Z,49.38
2023-02-11T08:18:41.314Z,49.76
2023-02-11T08:21:07.859Z,49.93
2023-02-11T08:23:34.336Z,50.40
2023-02-11T08:26:00.864Z,50.33
2023-02-11T08:28:27.490Z,50.29
2023-02-11T08:30:54.063Z,50.14
2023-02-11T08:33:20.502Z,50.07
2023-02-11T08:35:47.028Z,50.15
2023-02-11T08:38:13.519Z,49.48
2023-02-11T08:40:39.991Z,50.06
2023-02-11T08:43:08.187Z,49.98
2023-02-11T08:45:35.507Z,49.87
2023-02-11T08:50:52.624Z,49.82
2023-02-11T08:58:40.731Z,49.57
2023-02-11T09:01:07.258Z,50.06
2023-02-11T09:03:33.766Z,50.94
2023-02-11T09:06:00.289Z,51.92
2023-02-11T09:08:27.764Z,52.75
2023-02-11T09:10:54.283Z,53.18
2023-02-11T09:13:26.715Z,52.72
2023-02-11T09:15:53.242Z,52.57
2023-02-11T09:21:03.837Z,52.50
2023-02-11T09:23:30.401Z,52.96
2023-02-11T09:25:56.950Z,52.89
2023-02-11T09:28:31.827Z,52.66
2023-02-11T09:30:58.411Z,52.49
2023-02-11T09:33:24.991Z,52.35
2023-02-11T09:35:51.489Z,52.10
2023-02-11T09:38:18.368Z,51.05
2023-02-11T09:40:45.273Z,50.77
2023-02-11T09:43:13.385Z,50.49
2023-02-11T09:45:39.864Z,50.16
2023-02-11T09:48:06.982Z,49.88
2023-02-11T09:50:40.917Z,50.24
2023-02-11T09:53:07.387Z,51.45
2023-02-11T09:55:33.864Z,51.39
2023-02-11T09:58:00.358Z,51.39
2023-02-11T10:00:26.757Z,50.99
2023-02-11T10:02:53.443Z,51.15
2023-02-11T10:05:19.856Z,50.58
2023-02-11T10:07:46.336Z,50.33
2023-02-11T10:10:12.787Z,50.15
2023-02-11T10:12:39.247Z,50.02
2023-02-11T10:15:05.741Z,49.41
2023-02-11T10:17:32.250Z,49.56
2023-02-11T10:19:58.707Z,49.31
2023-02-11T10:22:25.293Z,49.27
2023-02-11T10:24:59.170Z,49.59
2023-02-11T10:27:25.560Z,49.22
2023-02-11T10:29:51.964Z,49.16
2023-02-11T10:32:18.462Z,49.50
2023-02-11T10:34:44.852Z,48.85
2023-02-11T10:37:11.318Z,49.15
2023-02-11T10:39:37.715Z,49.16
2023-02-11T10:42:04.457Z,49.01
2023-02-11T10:44:33.119Z,49.84
2023-02-11T10:47:00.867Z,51.19
2023-02-11T10:49:27.403Z,52.20
2023-02-11T10:51:53.837Z,52.35
2023-02-11T10:54:20.480Z,52.52
2023-02-11T10:56:46.978Z,52.43
2023-02-11T10:59:24.066Z,51.91
2023-02-11T11:01:50.655Z,51.61
2023-02-11T11:04:18.450Z,52.12
2023-02-11T11:06:44.959Z,52.12
2023-02-11T11:09:12.306Z,52.37
2023-02-11T11:11:38.790Z,52.33
2023-02-11T11:14:05.300Z,51.91
2023-02-11T11:16:31.760Z,51.83
2023-02-11T11:18:58.450Z,51.90
2023-02-11T11:21:24.900Z,51.80
2023-02-11T11:26:31.628Z,51.33
2023-02-11T11:28:58.063Z,50.39
2023-02-11T11:31:27.338Z,49.93
2023-02-11T11:33:54.379Z,49.19
2023-02-11T11:36:20.883Z,49.58
2023-02-11T11:38:56.473Z,49.96
2023-02-11T11:41:22.873Z,51.23
2023-02-11T11:43:49.434Z,52.41
2023-02-11T11:46:15.979Z,52.04
2023-02-11T11:48:42.456Z,52.20
2023-02-11T11:51:08.962Z,52.20
2023-02-11T11:53:35.596Z,51.92
2023-02-11T11:56:02.084Z,51.75
2023-02-11T11:58:28.529Z,51.17
2023-02-11T12:00:55.038Z,50.64
2023-02-11T12:03:21.789Z,50.43
2023-02-11T12:05:49.003Z,51.25
2023-02-11T12:08:18.023Z,50.20
2023-02-11T12:10:56.778Z,50.62
2023-02-11T12:13:23.374Z,51.05
2023-02-11T12:15:49.892Z,52.48
2023-02-11T12:18:16.427Z,54.05
2023-02-11T12:20:42.946Z,54.20
2023-02-11T12:23:09.433Z,55.64
2023-02-11T12:25:35.846Z,57.17
2023-02-11T12:28:02.431Z,56.60
2023-02-11T12:30:29.028Z,57.66
2023-02-11T12:32:55.539Z,58.45
2023-02-11T12:35:21.975Z,59.35
2023-02-11T12:37:48.361Z,59.43
2023-02-11T12:40:14.736Z,58.68
2023-02-11T12:42:42.155Z,58.45
2023-02-11T12:45:08.631Z,58.47
2023-02-11T12:47:36.232Z,59.71
2023-02-11T12:50:08.087Z,59.73
2023-02-11T12:52:34.818Z,59.76
2023-02-11T12:55:01.230Z,59.72
2023-02-11T12:57:27.949Z,58.51
2023-02-11T12:59:54.525Z,58.18
2023-02-11T13:02:32.292Z,58.31
2023-02-11T13:04:59.233Z,57.24
2023-02-11T13:07:25.750Z,56.75
2023-02-11T13:09:59.569Z,58.63
2023-02-11T13:12:26.135Z,59.49
2023-02-11T13:14:52.701Z,58.79
2023-02-11T13:17:19.286Z,59.52
2023-02-11T13:19:55.183Z,58.52
2023-02-11T13:22:21.603Z,58.49
2023-02-11T13:25:01.242Z,57.68
2023-02-11T13:27:27.790Z,56.67
2023-02-11T13:29:54.360Z,56.38
2023-02-11T13:32:21.160Z,54.90
2023-02-11T13:34:47.621Z,54.38
2023-02-11T13:37:14.101Z,53.84
2023-02-11T13:39:40.582Z,53.90
2023-02-11T13:42:07.078Z,54.38
2023-02-11T13:44:33.612Z,55.38
2023-02-11T13:47:00.130Z,55.80
2023-02-11T13:49:26.649Z,55.84
2023-02-11T13:51:53.151Z,55.69
2023-02-11T13:54:20.678Z,56.30
2023-02-11T13:56:47.310Z,55.81
2023-02-11T13:59:13.836Z,55.55
2023-02-11T14:01:40.343Z,56.49
2023-02-11T14:04:06.847Z,56.10
2023-02-11T14:06:33.346Z,55.11
2023-02-11T14:08:59.849Z,55.33
2023-02-11T14:11:26.352Z,55.43
2023-02-11T14:13:54.101Z,55.71
2023-02-11T14:16:36.395Z,55.72
2023-02-11T14:19:03.695Z,55.54
2023-02-11T14:21:30.136Z,55.67
2023-02-11T14:23:56.792Z,55.21
2023-02-11T14:26:23.227Z,54.67
2023-02-11T14:28:49.700Z,54.70
2023-02-11T14:31:16.231Z,54.16
2023-02-11T14:33:42.823Z,54.76
2023-02-11T14:36:09.324Z,54.39
2023-02-11T14:38:36.142Z,55.06
2023-02-11T14:41:02.669Z,55.63
2023-02-11T14:43:29.701Z,54.97
2023-02-11T14:45:56.376Z,54.43
2023-02-11T14:48:23.213Z,53.63
2023-02-11T14:50:50.893Z,53.37
2023-02-11T14:53:17.608Z,53.15
2023-02-11T14:55:44.128Z,52.61
2023-02-11T14:58:10.695Z,51.87
2023-02-11T15:00:37.179Z,52.55
2023-02-11T15:03:03.796Z,53.58
2023-02-11T15:05:30.315Z,52.52
2023-02-11T15:07:58.089Z,53.24
2023-02-11T15:10:24.537Z,52.52
2023-02-11T15:12:51.078Z,52.24
2023-02-11T15:15:17.604Z,54.81
2023-02-11T15:17:44.143Z,55.52
2023-02-11T15:20:16.429Z,55.80
2023-02-11T15:22:42.945Z,55.96
2023-02-11T15:25:09.483Z,56.19
2023-02-11T15:27:35.916Z,56.31
2023-02-11T15:30:02.578Z,55.85
2023-02-11T15:32:31.276Z,56.47
2023-02-11T15:34:57.934Z,57.02
2023-02-11T15:37:24.521Z,57.42
2023-02-11T15:39:51.048Z,56.88
2023-02-11T15:42:17.631Z,56.58
2023-02-11T15:44:44.138Z,57.08
2023-02-11T15:47:10.659Z,56.43
2023-02-11T15:49:37.261Z,56.53
2023-02-11T15:52:03.675Z,56.67
2023-02-11T15:54:31.755Z,55.69
2023-02-11T15:56:58.302Z,56.42
2023-02-11T15:59:24.767Z,56.18
2023-02-11T16:01:51.305Z,55.40
2023-02-11T16:04:17.880Z,55.76
2023-02-11T16:06:45.619Z,55.28
2023-02-11T16:09:12.002Z,55.03
2023-02-11T16:11:38.408Z,54.76
2023-02-11T16:14:55.764Z,55.28
2023-02-11T16:16:56.189Z,54.73
2023-02-11T16:19:25.323Z,54.55
2023-02-11T16:21:52.235Z,53.91
2023-02-11T16:24:18.867Z,54.29
2023-02-11T16:26:49.690Z,53.69
2023-02-11T16:29:20.244Z,53.34
2023-02-11T16:32:09.361Z,53.61
2023-02-11T16:34:33.931Z,53.82
2023-02-11T16:37:01.423Z,54.04
2023-02-11T16:39:28.098Z,54.25
2023-02-11T16:42:02.244Z,53.87
2023-02-11T16:44:28.775Z,53.98
2023-02-11T16:46:55.609Z,53.51
2023-02-11T16:49:22.180Z,54.03
2023-02-11T16:51:48.740Z,53.73
2023-02-11T16:54:15.132Z,54.41
2023-02-11T16:56:42.596Z,54.46
2023-02-11T16:59:09.120Z,54.63
2023-02-11T17:01:35.605Z,54.30
2023-02-11T17:04:02.189Z,54.38
2023-02-11T17:06:29.779Z,54.53
2023-02-11T17:08:56.316Z,54.51
2023-02-11T17:11:22.780Z,55.25
2023-02-11T17:13:49.253Z,55.23
2023-02-11T17:16:15.768Z,55.51
2023-02-11T17:18:42.326Z,55.33
2023-02-11T17:21:08.784Z,56.08
2023-02-11T17:23:35.340Z,56.44
2023-02-11T17:26:01.880Z,56.88
2023-02-11T17:28:28.390Z,56.88
2023-02-11T17:30:55.026Z,56.08
2023-02-11T17:33:21.615Z,56.02
2023-02-11T17:35:51.127Z,56.29
2023-02-11T17:38:17.839Z,56.22
2023-02-11T17:40:44.338Z,56.00
2023-02-11T17:43:11.015Z,55.48
2023-02-11T17:45:37.581Z,55.95
2023-02-11T17:48:04.198Z,56.02
2023-02-11T17:50:30.683Z,56.24
2023-02-11T17:52:57.206Z,55.73
2023-02-11T17:55:23.670Z,56.01
2023-02-11T17:57:50.351Z,56.00
2023-02-11T18:00:17.785Z,55.33
2023-02-11T18:02:44.421Z,56.33
2023-02-11T18:05:13.730Z,55.68
2023-02-11T18:07:40.195Z,55.36
2023-02-11T18:10:06.685Z,55.56
2023-02-11T18:12:33.331Z,55.40
2023-02-11T18:14:59.812Z,56.16
2023-02-11T18:17:26.293Z,55.84
2023-02-11T18:19:52.729Z,56.10
2023-02-11T18:22:19.223Z,55.92
2023-02-11T18:24:45.622Z,55.57
2023-02-11T18:27:12.057Z,54.40
2023-02-11T18:29:38.460Z,54.03
2023-02-11T18:32:05.008Z,54.57
2023-02-11T18:34:31.516Z,53.68
2023-02-11T18:36:59.006Z,54.49
2023-02-11T18:39:25.770Z,54.09
2023-02-11T18:41:52.208Z,53.76
2023-02-11T18:44:18.615Z,54.30
2023-02-11T18:46:45.270Z,53.51
2023-02-11T18:49:11.662Z,53.17
2023-02-11T18:51:38.102Z,53.22
2023-02-11T18:54:04.485Z,53.64
2023-02-11T18:56:30.897Z,53.81
2023-02-11T18:58:57.318Z,54.45
2023-02-11T19:01:24.203Z,55.21
2023-02-11T19:03:50.801Z,54.66
2023-02-11T19:06:17.218Z,53.50
2023-02-11T19:08:43.599Z,52.79
2023-02-11T19:11:10.085Z,53.06
2023-02-11T19:13:37.474Z,53.50
2023-02-11T19:16:03.878Z,54.10
2023-02-11T19:18:30.320Z,54.07
2023-02-11T19:20:59.550Z,53.83
2023-02-11T19:23:25.950Z,53.57
2023-02-11T19:25:52.594Z,52.84
2023-02-11T19:28:19.253Z,53.03
2023-02-11T19:30:45.943Z,53.50
2023-02-11T19:33:12.445Z,54.15
2023-02-11T19:35:38.858Z,53.84
2023-02-11T19:38:05.654Z,53.09
2023-02-11T19:40:32.116Z,52.71
2023-02-11T19:42:58.568Z,52.33
2023-02-11T19:45:26.944Z,53.25
2023-02-11T19:47:53.609Z,53.12
2023-02-11T19:50:22.039Z,53.25
2023-02-11T19:52:48.476Z,52.58
2023-02-11T19:55:17.215Z,52.09
2023-02-11T19:57:43.695Z,51.76
2023-02-11T20:00:10.113Z,52.27
2023-02-11T20:02:36.506Z,52.51
2023-02-11T20:05:02.945Z,53.07
2023-02-11T20:07:29.313Z,52.92
2023-02-11T20:09:55.954Z,53.26
2023-02-11T20:12:22.386Z,54.28
2023-02-11T20:14:53.057Z,54.23
2023-02-11T20:17:19.477Z,54.75
2023-02-11T20:19:45.879Z,55.01
2023-02-11T20:22:14.975Z,55.46
2023-02-11T20:24:41.343Z,55.92
2023-02-11T20:27:07.747Z,55.54
2023-02-11T20:29:34.179Z,56.37
2023-02-11T20:32:00.866Z,56.48
2023-02-11T20:34:27.359Z,55.96
2023-02-11T20:36:53.793Z,55.69
2023-02-11T20:39:20.252Z,56.38
2023-02-11T20:41:46.782Z,56.64
2023-02-11T20:44:13.249Z,56.60
2023-02-11T20:46:39.761Z,56.66
2023-02-11T20:49:06.192Z,56.08
2023-02-11T20:51:32.603Z,55.51
2023-02-11T20:53:58.944Z,55.04
2023-02-11T20:56:25.397Z,56.08
2023-02-11T20:58:53.105Z,55.74
2023-02-11T21:01:19.494Z,56.79
2023-02-11T21:03:45.938Z,56.35
2023-02-11T21:06:12.355Z,56.33
2023-02-11T21:08:38.752Z,56.53
2023-02-11T21:11:05.221Z,56.47
2023-02-11T21:13:31.686Z,56.23
2023-02-11T21:15:58.606Z,56.13
2023-02-11T21:18:27.367Z,55.51
2023-02-11T21:20:53.797Z,54.88
2023-02-11T21:23:20.235Z,54.67
2023-02-11T21:25:46.663Z,53.86
2023-02-11T21:28:13.108Z,52.64
2023-02-11T21:30:39.579Z,52.30
2023-02-11T21:33:05.984Z,51.86
2023-02-11T21:35:32.432Z,52.49
2023-02-11T21:38:00.099Z,51.85
2023-02-11T21:40:26.480Z,51.26
2023-02-11T21:42:52.844Z,51.52
2023-02-11T21:45:19.340Z,51.81
2023-02-11T21:47:54.012Z,52.13
2023-02-11T21:50:20.474Z,51.48
2023-02-11T21:52:48.987Z,51.07
2023-02-11T21:55:15.385Z,51.45
2023-02-11T21:57:41.923Z,52.44
2023-02-11T22:00:08.425Z,53.02
2023-02-11T22:02:34.881Z,53.24
2023-02-11T22:05:01.465Z,53.92
2023-02-11T22:07:27.879Z,52.87
2023-02-11T22:09:54.266Z,52.92
2023-02-11T22:12:21.082Z,52.59
2023-02-11T22:14:47.453Z,52.57
2023-02-11T22:17:14.404Z,52.12
2023-02-11T22:19:40.882Z,52.34
2023-02-11T22:22:07.270Z,52.11
2023-02-11T22:24:33.816Z,52.16
2023-02-11T22:27:01.522Z,52.69
2023-02-11T22:29:27.952Z,53.27
2023-02-11T22:31:54.510Z,52.65
2023-02-11T22:34:20.978Z,52.11
2023-02-11T22:36:47.463Z,52.25
2023-02-11T22:39:13.889Z,52.28
2023-02-11T22:41:40.421Z,53.21
2023-02-11T22:44:12.575Z,52.78
2023-02-11T22:46:39.026Z,54.18
2023-02-11T22:49:05.462Z,54.01
2023-02-11T22:51:33.298Z,53.67
2023-02-11T22:54:01.791Z,53.80
2023-02-11T22:56:28.248Z,54.50
2023-02-11T22:58:54.714Z,54.40
2023-02-11T23:01:21.365Z,53.65
2023-02-11T23:03:47.767Z,52.97
2023-02-11T23:06:14.217Z,53.15
2023-02-11T23:08:40.820Z,52.67
2023-02-11T23:11:07.263Z,52.99
2023-02-11T23:13:33.762Z,53.25
2023-02-11T23:16:00.450Z,53.38
2023-02-11T23:18:28.327Z,52.79
2023-02-11T23:20:54.770Z,52.50
2023-02-11T23:23:21.381Z,52.87
2023-02-11T23:25:47.836Z,52.90
2023-02-11T23:28:14.344Z,53.26
2023-02-11T23:30:40.765Z,52.25
2023-02-11T23:33:07.217Z,52.50
2023-02-11T23:35:33.675Z,53.21
2023-02-11T23:38:00.072Z,53.07
2023-02-11T23:40:26.508Z,52.92
2023-02-11T23:42:52.930Z,53.10
2023-02-11T23:45:19.415Z,53.06
2023-02-11T23:47:45.913Z,53.58
2023-02-11T23:50:12.400Z,53.53
2023-02-11T23:52:39.017Z,53.01
2023-02-11T23:55:05.382Z,52.23
2023-02-11T23:57:31.836Z,52.65
2023-02-11T23:59:58.215Z,52.36
